createdAt,value
2019-03-28T00:01:11.855Z,99.90
2019-03-28T00:03:42.122Z,99.90
2019-03-28T00:06:12.276Z,99.90
2019-03-28T00:08:43.228Z,99.90
2019-03-28T00:11:13.378Z,99.90
2019-03-28T00:13:43.685Z,99.90
2019-03-28T00:16:15.047Z,99.90
2019-03-28T00:18:45.425Z,99.90
2019-03-28T00:21:15.643Z,99.90
2019-03-28T00:24:02.783Z,99.90
2019-03-28T00:26:32.945Z,99.90
2019-03-28T00:29:03.199Z,99.90
2019-03-28T00:31:33.442Z,99.90
2019-03-28T00:34:03.807Z,99.90
2019-03-28T00:36:33.955Z,99.90
2019-03-28T00:39:06.066Z,99.90
2019-03-28T00:41:36.218Z,99.90
2019-03-28T00:44:06.391Z,99.90
2019-03-28T00:46:36.545Z,99.90
2019-03-28T00:49:06.816Z,99.90
2019-03-28T00:51:36.963Z,99.90
2019-03-28T00:54:07.243Z,99.90
2019-03-28T00:56:46.480Z,99.90
2019-03-28T00:59:09.258Z,99.90
2019-03-28T01:01:39.541Z,99.90
2019-03-28T01:04:09.716Z,99.90
2019-03-28T01:06:39.931Z,99.90
2019-03-28T01:09:10.293Z,99.90
2019-03-28T01:11:40.449Z,99.90
2019-03-28T01:14:10.845Z,99.90
2019-03-28T01:16:41.405Z,99.90
2019-03-28T01:19:11.579Z,99.90
2019-03-28T01:21:41.913Z,99.90
2019-03-28T01:24:12.096Z,99.90
2019-03-28T01:26:42.321Z,99.90
2019-03-28T01:29:12.501Z,99.90
2019-03-28T01:31:42.861Z,99.90
2019-03-28T01:34:13.044Z,99.90
2019-03-28T01:36:43.281Z,99.90
2019-03-28T01:39:13.808Z,99.90
2019-03-28T01:41:43.933Z,99.90
2019-03-28T01:44:14.218Z,99.90
2019-03-28T01:46:44.465Z,99.90
2019-03-28T01:49:14.640Z,99.90
2019-03-28T01:51:44.868Z,99.90
2019-03-28T01:54:15.256Z,99.90
2019-03-28T01:56:45.452Z,99.90
2019-03-28T01:59:15.643Z,99.90
2019-03-28T02:01:45.800Z,99.90
2019-03-28T02:04:16.180Z,99.90
2019-03-28T02:06:46.343Z,99.90
2019-03-28T02:09:16.800Z,99.90
2019-03-28T02:11:47.047Z,99.90
2019-03-28T02:14:17.244Z,99.90
2019-03-28T02:16:47.600Z,99.90
2019-03-28T02:19:17.897Z,99.90
2019-03-28T02:21:48.157Z,99.90
2019-03-28T02:24:18.577Z,99.90
2019-03-28T02:26:49.266Z,99.90
2019-03-28T02:29:19.531Z,99.90
2019-03-28T02:31:49.903Z,99.90
2019-03-28T02:34:20.182Z,99.90
2019-03-28T02:36:50.377Z,99.90
2019-03-28T02:39:20.652Z,99.90
2019-03-28T02:41:50.860Z,99.90
2019-03-28T02:44:21.134Z,99.90
2019-03-28T02:46:51.572Z,99.90
2019-03-28T02:49:21.746Z,99.90
2019-03-28T02:51:51.948Z,99.90
2019-03-28T02:54:22.129Z,99.90
2019-03-28T02:56:52.432Z,99.90
2019-03-28T02:59:22.688Z,99.90
2019-03-28T03:01:52.877Z,99.90
2019-03-28T03:04:23.140Z,99.90
2019-03-28T03:06:54.831Z,99.90
2019-03-28T03:09:25.788Z,99.90
2019-03-28T03:11:56.176Z,99.90
2019-03-28T03:14:26.426Z,99.90
2019-03-28T03:16:56.816Z,99.90
2019-03-28T03:19:27.068Z,99.90
2019-03-28T03:21:57.462Z,99.90
2019-03-28T03:24:27.613Z,99.90
2019-03-28T03:26:57.792Z,99.90
2019-03-28T03:29:47.485Z,99.90
2019-03-28T03:32:17.782Z,99.90
2019-03-28T03:34:48.010Z,99.90
2019-03-28T03:37:18.616Z,99.90
2019-03-28T03:39:48.781Z,99.90
2019-03-28T03:42:19.086Z,99.90
2019-03-28T03:44:50.278Z,99.90
2019-03-28T03:47:22.327Z,99.90
2019-03-28T03:49:52.488Z,99.90
2019-03-28T03:52:22.775Z,99.90
2019-03-28T03:54:53.439Z,99.90
2019-03-28T03:57:23.616Z,99.90
2019-03-28T03:59:53.785Z,99.90
2019-03-28T04:02:24.765Z,99.90
2019-03-28T04:04:56.767Z,99.90
2019-03-28T04:07:26.806Z,99.90
2019-03-28T04:09:57.057Z,99.90
2019-03-28T04:12:27.243Z,99.90
2019-03-28T04:14:57.441Z,99.90
2019-03-28T04:17:27.694Z,99.90
2019-03-28T04:19:58.706Z,99.90
2019-03-28T04:22:29.036Z,99.90
2019-03-28T04:24:59.181Z,99.90
2019-03-28T04:27:30.445Z,99.90
2019-03-28T04:30:00.618Z,99.90
2019-03-28T04:32:31.013Z,99.90
2019-03-28T04:35:01.396Z,99.90
2019-03-28T04:37:32.626Z,99.90
2019-03-28T04:40:04.340Z,99.90
2019-03-28T04:42:34.526Z,99.90
2019-03-28T04:45:06.120Z,99.90
2019-03-28T04:47:36.523Z,99.90
2019-03-28T04:50:07.429Z,99.90
2019-03-28T04:52:37.624Z,99.90
2019-03-28T04:55:08.232Z,99.90
2019-03-28T04:57:40.878Z,99.90
2019-03-28T05:00:11.237Z,99.90
2019-03-28T05:02:41.521Z,99.90
2019-03-28T05:05:11.888Z,99.90
2019-03-28T05:07:42.415Z,99.90
2019-03-28T05:10:13.073Z,99.90
2019-03-28T05:12:43.453Z,99.90
2019-03-28T05:15:14.250Z,99.90
2019-03-28T05:17:44.428Z,99.90
2019-03-28T05:20:15.095Z,99.90
2019-03-28T05:22:45.264Z,99.90
2019-03-28T05:25:15.424Z,99.90
2019-03-28T05:27:45.616Z,99.90
2019-03-28T05:30:16.335Z,99.90
2019-03-28T05:32:46.601Z,99.90
2019-03-28T05:35:16.967Z,99.90
2019-03-28T05:37:47.444Z,99.90
2019-03-28T05:40:17.728Z,99.90
2019-03-28T05:42:47.932Z,99.90
2019-03-28T05:45:18.499Z,99.90
2019-03-28T05:47:48.940Z,99.90
2019-03-28T05:50:19.296Z,99.90
2019-03-28T05:52:49.684Z,99.90
2019-03-28T05:55:20.158Z,99.90
2019-03-28T05:57:50.433Z,99.90
2019-03-28T06:00:20.867Z,99.90
2019-03-28T06:02:51.122Z,99.90
2019-03-28T06:05:21.301Z,99.90
2019-03-28T06:07:51.556Z,99.90
2019-03-28T06:10:21.716Z,99.90
2019-03-28T06:12:51.929Z,99.90
2019-03-28T06:15:22.256Z,99.90
2019-03-28T06:17:52.448Z,99.90
2019-03-28T06:20:22.692Z,99.90
2019-03-28T06:22:52.971Z,99.90
2019-03-28T06:25:23.251Z,99.90
2019-03-28T06:27:53.615Z,99.90
2019-03-28T06:30:24.007Z,99.90
2019-03-28T06:32:54.164Z,99.90
2019-03-28T06:35:24.645Z,99.90
2019-03-28T06:37:55.004Z,99.90
2019-03-28T06:40:25.389Z,99.90
2019-03-28T06:42:55.716Z,99.90
2019-03-28T06:45:25.880Z,99.90
2019-03-28T06:47:56.043Z,99.90
2019-03-28T06:50:26.822Z,99.90
2019-03-28T06:52:57.182Z,99.90
2019-03-28T06:55:27.354Z,99.90
2019-03-28T06:57:57.699Z,99.90
2019-03-28T07:00:27.990Z,99.90
2019-03-28T07:02:58.137Z,99.90
2019-03-28T07:05:28.312Z,99.90
2019-03-28T07:08:00.306Z,99.90
2019-03-28T07:10:30.579Z,99.90
2019-03-28T07:13:00.765Z,99.90
2019-03-28T07:15:31.017Z,99.90
2019-03-28T07:18:01.173Z,99.90
2019-03-28T07:20:31.622Z,99.90
2019-03-28T07:23:01.786Z,99.90
2019-03-28T07:25:32.029Z,99.90
2019-03-28T07:28:02.294Z,99.90
2019-03-28T07:30:33.477Z,99.90
2019-03-28T07:33:03.829Z,99.90
2019-03-28T07:35:34.108Z,99.90
2019-03-28T07:38:04.538Z,99.90
2019-03-28T07:40:34.713Z,99.90
2019-03-28T07:43:04.936Z,99.90
2019-03-28T07:45:35.219Z,99.90
2019-03-28T07:48:05.451Z,99.90
2019-03-28T07:50:35.623Z,99.90
2019-03-28T07:53:05.928Z,99.90
2019-03-28T07:55:36.100Z,99.90
2019-03-28T07:58:07.646Z,99.90
2019-03-28T08:00:38.141Z,99.90
2019-03-28T08:03:08.400Z,99.90
2019-03-28T08:05:38.683Z,99.90
2019-03-28T08:08:08.950Z,99.90
2019-03-28T08:10:39.122Z,99.90
2019-03-28T08:13:09.493Z,99.90
2019-03-28T08:15:39.783Z,99.90
2019-03-28T08:18:10.014Z,99.90
2019-03-28T08:20:40.404Z,99.90
2019-03-28T08:23:10.588Z,99.90
2019-03-28T08:25:41.564Z,99.90
2019-03-28T08:28:11.891Z,99.90
2019-03-28T08:30:45.240Z,99.90
2019-03-28T08:33:14.161Z,99.90
2019-03-28T08:35:44.441Z,99.90
2019-03-28T08:38:15.436Z,99.90
2019-03-28T08:40:46.065Z,99.90
2019-03-28T08:43:16.285Z,99.90
2019-03-28T08:45:46.481Z,99.90
2019-03-28T08:48:16.652Z,99.90
2019-03-28T08:50:46.829Z,99.90
2019-03-28T08:53:17.170Z,99.90
2019-03-28T08:55:47.346Z,99.90
2019-03-28T08:58:17.512Z,99.90
2019-03-28T09:00:52.351Z,99.90
2019-03-28T09:03:19.565Z,99.90
2019-03-28T09:05:49.758Z,99.90
2019-03-28T09:08:20.125Z,99.90
2019-03-28T09:10:50.513Z,99.90
2019-03-28T09:13:20.673Z,99.90
2019-03-28T09:15:50.908Z,99.90
2019-03-28T09:18:30.400Z,99.90
2019-03-28T09:21:00.591Z,99.90
2019-03-28T09:23:42.772Z,99.90
2019-03-28T09:26:13.028Z,99.90
2019-03-28T09:28:43.237Z,99.90
2019-03-28T09:31:19.687Z,99.90
2019-03-28T09:33:45.434Z,99.90
2019-03-28T09:36:15.704Z,99.90
2019-03-28T09:38:46.064Z,99.90
2019-03-28T09:41:16.589Z,99.90
2019-03-28T09:43:55.169Z,99.90
2019-03-28T09:46:18.767Z,99.90
2019-03-28T09:48:48.916Z,99.90
2019-03-28T09:51:19.293Z,99.90
2019-03-28T09:53:50.970Z,99.90
2019-03-28T09:56:21.345Z,99.90
2019-03-28T09:58:51.717Z,99.90
2019-03-28T10:01:22.065Z,99.90
2019-03-28T10:03:52.329Z,99.90
2019-03-28T10:06:22.628Z,99.90
2019-03-28T10:08:52.896Z,99.90
2019-03-28T10:11:23.084Z,99.90
2019-03-28T10:13:53.235Z,99.90
2019-03-28T10:16:23.537Z,99.90
2019-03-28T10:18:53.890Z,99.90
2019-03-28T10:21:24.182Z,99.90
2019-03-28T10:23:54.357Z,99.90
2019-03-28T10:26:24.939Z,99.90
2019-03-28T10:28:55.078Z,99.90
2019-03-28T10:31:25.416Z,99.90
2019-03-28T10:33:55.796Z,99.90
2019-03-28T10:36:27.843Z,99.90
2019-03-28T10:38:58.031Z,99.90
2019-03-28T10:41:28.820Z,99.90
2019-03-28T10:43:59.450Z,99.90
2019-03-28T10:46:29.785Z,99.90
2019-03-28T10:49:00.133Z,99.90
2019-03-28T10:51:31.153Z,99.90
2019-03-28T10:54:01.398Z,99.90
2019-03-28T10:56:31.718Z,99.90
2019-03-28T10:59:02.083Z,99.90
2019-03-28T11:01:47.601Z,99.90
2019-03-28T11:04:04.180Z,99.90
2019-03-28T11:06:34.484Z,99.90
2019-03-28T11:09:06.943Z,99.90
2019-03-28T11:11:37.366Z,99.90
2019-03-28T11:14:07.675Z,99.90
2019-03-28T11:16:40.733Z,99.90
2019-03-28T11:19:10.933Z,99.90
2019-03-28T11:21:41.413Z,99.90
2019-03-28T11:24:11.701Z,99.90
2019-03-28T11:26:43.121Z,99.90
2019-03-28T11:29:13.573Z,99.90
2019-03-28T11:31:46.853Z,99.90
2019-03-28T11:34:16.359Z,99.90
2019-03-28T11:36:46.595Z,99.90
2019-03-28T11:39:16.908Z,99.90
2019-03-28T11:41:47.881Z,99.90
2019-03-28T11:44:18.183Z,99.90
2019-03-28T11:46:48.517Z,99.90
2019-03-28T11:49:19.320Z,99.90
2019-03-28T11:51:49.554Z,99.90
2019-03-28T11:54:19.857Z,99.90
2019-03-28T11:56:50.254Z,99.90
2019-03-28T11:59:20.647Z,99.90
2019-03-28T12:02:00.381Z,99.90
2019-03-28T12:04:22.921Z,99.90
2019-03-28T12:06:53.347Z,99.90
2019-03-28T12:09:23.780Z,99.90
2019-03-28T12:11:54.009Z,99.90
2019-03-28T12:14:25.020Z,99.90
2019-03-28T12:16:55.276Z,99.10
2019-03-28T12:19:25.584Z,98.80
2019-03-28T12:21:56.083Z,99.90
2019-03-28T12:24:26.352Z,99.90
2019-03-28T12:26:56.701Z,99.90
2019-03-28T12:29:27.959Z,99.30
2019-03-28T12:31:58.365Z,99.20
2019-03-28T12:34:28.788Z,99.90
2019-03-28T12:36:59.104Z,98.60
2019-03-28T12:39:29.969Z,97.30
2019-03-28T12:42:00.475Z,98.40
2019-03-28T12:44:31.005Z,98.50
2019-03-28T12:47:01.325Z,97.90
2019-03-28T12:49:31.657Z,98.30
2019-03-28T12:52:02.508Z,98.20
2019-03-28T12:54:33.017Z,97.10
2019-03-28T12:57:04.888Z,99.20
2019-03-28T12:59:35.507Z,99.90
2019-03-28T13:02:05.955Z,97.60
2019-03-28T13:04:37.688Z,97.60
2019-03-28T13:07:08.206Z,98.90
2019-03-28T13:09:38.545Z,96.60
2019-03-28T13:12:08.972Z,97.50
2019-03-28T13:14:39.416Z,96.70
2019-03-28T13:17:09.791Z,96.60
2019-03-28T13:19:40.262Z,96.30
2019-03-28T13:22:10.765Z,96.20
2019-03-28T13:25:04.565Z,97.10
2019-03-28T13:27:36.980Z,94.10
2019-03-28T13:30:10.526Z,94.20
2019-03-28T13:32:42.375Z,95.20
2019-03-28T13:35:13.312Z,95.10
2019-03-28T13:37:43.542Z,95.60
2019-03-28T13:40:14.011Z,96.40
2019-03-28T13:42:44.425Z,96.60
2019-03-28T13:45:15.431Z,97.00
2019-03-28T13:47:45.648Z,97.50
2019-03-28T13:50:16.711Z,96.90
2019-03-28T13:52:46.921Z,97.20
2019-03-28T13:55:17.149Z,97.30
2019-03-28T13:57:47.894Z,98.70
2019-03-28T14:00:21.567Z,99.00
2019-03-28T14:02:58.529Z,99.20
2019-03-28T14:05:23.754Z,99.00
2019-03-28T14:07:53.996Z,99.40
2019-03-28T14:10:24.280Z,99.90
2019-03-28T14:12:54.671Z,99.70
2019-03-28T14:15:25.281Z,99.90
2019-03-28T14:17:55.818Z,99.80
2019-03-28T14:20:26.208Z,99.70
2019-03-28T14:22:56.632Z,99.90
2019-03-28T14:25:26.892Z,99.90
2019-03-28T14:27:57.200Z,99.30
2019-03-28T14:30:27.429Z,99.90
2019-03-28T14:33:10.552Z,99.90
2019-03-28T14:35:29.529Z,99.90
2019-03-28T14:37:59.732Z,99.90
2019-03-28T14:40:30.039Z,99.90
2019-03-28T14:43:00.336Z,99.90
2019-03-28T14:45:30.572Z,99.90
2019-03-28T14:48:01.009Z,99.90
2019-03-28T14:50:40.946Z,99.90
2019-03-28T14:53:11.272Z,99.90
2019-03-28T14:55:41.772Z,99.90
2019-03-28T14:58:12.061Z,99.90
2019-03-28T15:00:49.891Z,99.90
2019-03-28T15:03:26.148Z,99.90
2019-03-28T15:05:52.500Z,99.90
2019-03-28T15:08:22.806Z,99.90
2019-03-28T15:10:54.129Z,99.90
2019-03-28T15:13:24.449Z,99.90
2019-03-28T15:15:54.878Z,99.90
2019-03-28T15:18:25.092Z,99.90
2019-03-28T15:20:55.497Z,99.90
2019-03-28T15:23:25.981Z,99.90
2019-03-28T15:25:56.382Z,99.90
2019-03-28T15:28:26.692Z,99.90
2019-03-28T15:30:56.926Z,99.90
2019-03-28T15:33:38.703Z,99.90
2019-03-28T15:35:59.133Z,99.90
2019-03-28T15:38:31.343Z,99.90
2019-03-28T15:41:01.499Z,99.90
2019-03-28T15:43:31.706Z,99.90
2019-03-28T15:46:01.932Z,99.90
2019-03-28T15:48:32.140Z,99.90
2019-03-28T15:51:02.662Z,99.90
2019-03-28T15:53:32.863Z,99.90
2019-03-28T15:56:04.069Z,99.90
2019-03-28T15:58:34.286Z,99.90
2019-03-28T16:01:05.249Z,99.90
2019-03-28T16:03:35.560Z,99.90
2019-03-28T16:06:05.804Z,99.90
2019-03-28T16:08:36.001Z,99.90
2019-03-28T16:11:06.432Z,99.90
2019-03-28T16:13:37.709Z,99.90
2019-03-28T16:16:08.175Z,99.90
2019-03-28T16:18:39.528Z,99.90
2019-03-28T16:21:10.642Z,99.90
2019-03-28T16:23:40.952Z,99.90
2019-03-28T16:26:11.394Z,99.90
2019-03-28T16:28:41.601Z,99.90
2019-03-28T16:31:11.928Z,99.90
2019-03-28T16:33:42.235Z,99.90
2019-03-28T16:36:12.473Z,99.90
2019-03-28T16:38:42.779Z,99.90
2019-03-28T16:41:13.004Z,99.90
2019-03-28T16:43:43.328Z,99.90
2019-03-28T16:46:13.557Z,99.90
2019-03-28T16:48:45.268Z,99.90
2019-03-28T16:51:17.559Z,99.90
2019-03-28T16:53:47.508Z,99.90
2019-03-28T16:56:17.919Z,99.90
2019-03-28T16:58:48.245Z,99.90
2019-03-28T17:01:19.624Z,99.90
2019-03-28T17:03:50.092Z,99.90
2019-03-28T17:06:20.592Z,99.90
2019-03-28T17:08:53.360Z,99.90
2019-03-28T17:11:24.390Z,99.90
2019-03-28T17:13:55.464Z,99.90
2019-03-28T17:16:25.758Z,99.90
2019-03-28T17:18:56.335Z,99.90
2019-03-28T17:21:28.118Z,99.90
2019-03-28T17:23:58.328Z,99.90
2019-03-28T17:26:28.659Z,99.90
2019-03-28T17:28:58.859Z,99.90
2019-03-28T17:31:29.142Z,99.90
2019-03-28T17:33:59.431Z,99.90
2019-03-28T17:36:29.866Z,99.90
2019-03-28T17:39:00.193Z,99.90
2019-03-28T17:41:31.742Z,99.90
2019-03-28T17:44:02.215Z,99.90
2019-03-28T17:46:33.938Z,99.90
2019-03-28T17:49:04.263Z,99.90
2019-03-28T17:51:35.592Z,99.90
2019-03-28T17:54:06.004Z,99.90
2019-03-28T17:56:36.333Z,99.90
2019-03-28T17:59:06.940Z,99.90
2019-03-28T18:01:37.185Z,99.90
2019-03-28T18:04:07.607Z,99.90
2019-03-28T18:06:37.966Z,99.90
2019-03-28T18:09:08.617Z,99.90
2019-03-28T18:11:38.907Z,99.90
2019-03-28T18:14:09.192Z,99.90
2019-03-28T18:16:39.431Z,99.90
2019-03-28T18:19:09.668Z,99.90
2019-03-28T18:21:40.035Z,99.90
2019-03-28T18:24:22.911Z,99.90
2019-03-28T18:26:53.272Z,99.90
2019-03-28T18:29:23.669Z,99.90
2019-03-28T18:31:53.965Z,99.90
2019-03-28T18:34:24.173Z,99.90
2019-03-28T18:36:54.508Z,99.90
2019-03-28T18:39:24.720Z,99.90
2019-03-28T18:41:56.554Z,99.90
2019-03-28T18:44:27.049Z,99.90
2019-03-28T18:46:57.401Z,99.90
2019-03-28T18:49:27.799Z,99.90
2019-03-28T18:51:58.124Z,99.90
2019-03-28T18:54:28.465Z,99.90
2019-03-28T18:56:58.894Z,99.90
2019-03-28T18:59:29.268Z,99.90
2019-03-28T19:01:59.701Z,99.90
2019-03-28T19:04:30.183Z,99.90
2019-03-28T19:07:00.568Z,99.90
2019-03-28T19:09:31.110Z,99.90
2019-03-28T19:12:01.609Z,99.90
2019-03-28T19:14:32.006Z,99.90
2019-03-28T19:17:02.394Z,99.90
2019-03-28T19:19:39.122Z,99.90
2019-03-28T19:22:04.744Z,99.90
2019-03-28T19:24:35.071Z,99.90
2019-03-28T19:27:05.385Z,99.90
2019-03-28T19:29:35.811Z,99.90
2019-03-28T19:32:06.309Z,99.90
2019-03-28T19:34:38.353Z,99.90
2019-03-28T19:37:08.832Z,99.90
2019-03-28T19:39:39.295Z,99.90
2019-03-28T19:42:09.611Z,99.90
2019-03-28T19:44:40.996Z,99.90
2019-03-28T19:47:11.264Z,99.90
2019-03-28T19:49:41.549Z,99.90
2019-03-28T19:52:13.804Z,99.90
2019-03-28T19:54:44.119Z,99.90
2019-03-28T19:57:14.313Z,99.90
2019-03-28T19:59:44.536Z,99.90
2019-03-28T20:02:14.756Z,99.90
2019-03-28T20:04:46.768Z,99.90
2019-03-28T20:07:21.890Z,99.90
2019-03-28T20:09:49.020Z,99.90
2019-03-28T20:12:19.384Z,99.90
2019-03-28T20:14:49.950Z,99.90
2019-03-28T20:17:20.247Z,99.90
2019-03-28T20:19:50.668Z,99.90
2019-03-28T20:22:22.991Z,99.90
2019-03-28T20:24:53.561Z,99.90
2019-03-28T20:27:24.010Z,99.90
2019-03-28T20:29:54.241Z,99.90
2019-03-28T20:32:24.575Z,99.90
2019-03-28T20:34:56.009Z,99.90
2019-03-28T20:37:26.584Z,99.90
2019-03-28T20:39:57.012Z,99.90
2019-03-28T20:42:27.314Z,99.90
2019-03-28T20:44:59.053Z,99.90
2019-03-28T20:47:29.260Z,99.90
2019-03-28T20:50:01.029Z,99.90
2019-03-28T20:52:31.866Z,99.90
2019-03-28T20:55:03.350Z,99.90
2019-03-28T20:57:33.552Z,99.90
2019-03-28T21:00:08.252Z,99.90
2019-03-28T21:02:37.232Z,99.90
2019-03-28T21:05:09.107Z,99.90
2019-03-28T21:07:39.531Z,99.90
2019-03-28T21:10:12.926Z,99.90
2019-03-28T21:12:43.805Z,99.90
2019-03-28T21:15:14.518Z,99.90
2019-03-28T21:17:44.812Z,99.90
2019-03-28T21:20:15.088Z,99.90
2019-03-28T21:22:45.279Z,99.90
2019-03-28T21:25:15.500Z,99.90
2019-03-28T21:27:45.660Z,99.90
2019-03-28T21:30:18.453Z,99.90
2019-03-28T21:32:55.368Z,99.90
2019-03-28T21:35:20.231Z,99.90
2019-03-28T21:37:50.853Z,99.90
2019-03-28T21:40:21.223Z,99.90
2019-03-28T21:42:51.404Z,99.90
2019-03-28T21:45:21.659Z,99.90
2019-03-28T21:47:51.920Z,99.90
2019-03-28T21:50:22.099Z,99.90
2019-03-28T21:52:52.366Z,99.90
2019-03-28T21:55:22.662Z,99.90
2019-03-28T21:57:52.819Z,99.90
2019-03-28T22:00:23.221Z,99.90
2019-03-28T22:02:53.610Z,99.90
2019-03-28T22:05:23.909Z,99.90
2019-03-28T22:07:54.061Z,99.90
2019-03-28T22:10:24.357Z,99.90
2019-03-28T22:12:55.775Z,99.90
2019-03-28T22:15:26.112Z,99.90
2019-03-28T22:17:56.272Z,99.90
2019-03-28T22:20:26.460Z,99.90
2019-03-28T22:22:56.632Z,99.90
2019-03-28T22:25:26.927Z,99.90
2019-03-28T22:27:57.089Z,99.90
2019-03-28T22:30:27.373Z,99.90
2019-03-28T22:32:58.057Z,99.90
2019-03-28T22:35:28.447Z,99.90
2019-03-28T22:37:58.691Z,99.90
2019-03-28T22:40:28.869Z,99.90
2019-03-28T22:42:59.032Z,99.90
2019-03-28T22:45:29.317Z,99.90
2019-03-28T22:48:10.151Z,99.90
2019-03-28T22:50:32.189Z,99.90
2019-03-28T22:53:02.454Z,99.90
2019-03-28T22:55:32.619Z,99.90
2019-03-28T22:58:02.877Z,99.90
2019-03-28T23:00:44.792Z,99.90
2019-03-28T23:03:15.584Z,99.90
2019-03-28T23:05:45.900Z,99.90
2019-03-28T23:08:16.132Z,99.90
2019-03-28T23:10:47.859Z,99.90
2019-03-28T23:13:18.577Z,99.90
2019-03-28T23:15:48.833Z,99.90
2019-03-28T23:18:20.497Z,99.90
2019-03-28T23:20:50.772Z,99.90
2019-03-28T23:23:21.024Z,99.90
2019-03-28T23:25:51.500Z,99.90
2019-03-28T23:28:21.768Z,99.90
2019-03-28T23:30:52.068Z,99.90
2019-03-28T23:33:22.217Z,99.90
2019-03-28T23:35:52.601Z,99.90
2019-03-28T23:38:22.784Z,99.90
2019-03-28T23:40:53.077Z,99.90
2019-03-28T23:43:23.424Z,99.90
2019-03-28T23:45:53.765Z,99.90
2019-03-28T23:48:24.067Z,99.90
2019-03-28T23:50:54.421Z,99.90
2019-03-28T23:53:24.796Z,99.90
2019-03-28T23:55:54.955Z,99.90
2019-03-28T23:58:25.980Z,99.90
